Time;durP1;ratioP1;P1;durP2;ratioP2;P2;SDS_P1;SDS_P2;PMS_P1;PMS_P2;Temp;Humidity;BMP_temperature;BMP_pressure;BME280_temperature;BME280_humidity;BME280_pressure;Samples;Min_cycle;Max_cycle;Signal;HPM_P1;HPM_P2
2022/05/18 00:02:18;;;;;;;1.80;1.40;;;18.00;99.90;;;;;;5031459;28;20487;-55
2022/05/18 00:04:45;;;;;;;4.37;1.70;;;18.10;99.90;;;;;;5029733;28;20411;-56
2022/05/18 00:07:11;;;;;;;1.83;1.10;;;18.00;99.90;;;;;;5028870;28;20719;-53
2022/05/18 00:09:36;;;;;;;3.40;1.40;;;18.00;99.90;;;;;;5030189;28;20720;-55
2022/05/18 00:12:02;;;;;;;3.23;1.30;;;18.00;99.90;;;;;;5033893;28;20387;-55
2022/05/18 00:14:28;;;;;;;2.50;1.30;;;17.90;99.90;;;;;;5032843;28;20387;-51
2022/05/18 00:16:53;;;;;;;3.43;1.30;;;17.80;99.90;;;;;;5032390;28;20395;-57
2022/05/18 00:19:19;;;;;;;4.00;1.10;;;17.80;99.90;;;;;;5030317;28;20498;-53
2022/05/18 00:21:45;;;;;;;3.50;1.17;;;17.80;99.90;;;;;;5030444;28;20506;-56
2022/05/18 00:24:11;;;;;;;3.25;1.10;;;17.70;99.90;;;;;;5030279;28;20734;-55
2022/05/18 00:26:37;;;;;;;4.90;1.20;;;17.70;99.90;;;;;;5030300;28;20429;-56
2022/05/18 00:29:02;;;;;;;3.15;1.20;;;17.60;99.90;;;;;;5031333;28;20693;-55
2022/05/18 00:31:28;;;;;;;3.57;1.40;;;17.60;99.90;;;;;;5030045;28;20432;-56
2022/05/18 00:33:53;;;;;;;4.38;1.30;;;17.60;99.90;;;;;;5029515;28;20406;-56
2022/05/18 00:36:19;;;;;;;2.43;1.20;;;17.60;99.90;;;;;;5029109;28;20413;-52
2022/05/18 00:38:44;;;;;;;3.40;1.00;;;17.50;99.90;;;;;;5030014;28;20391;-56
2022/05/18 00:41:10;;;;;;;5.20;1.25;;;17.50;99.90;;;;;;5030393;28;20392;-54
2022/05/18 00:43:39;;;;;;;3.30;1.00;;;17.40;99.90;;;;;;5033061;28;20391;-54
2022/05/18 00:46:08;;;;;;;4.30;1.15;;;17.40;99.90;;;;;;5031683;28;20390;-54
2022/05/18 00:48:34;;;;;;;2.53;0.82;;;17.40;99.90;;;;;;5030765;28;20410;-54
2022/05/18 00:51:04;;;;;;;2.95;1.05;;;17.30;99.90;;;;;;5031971;28;20561;-56
2022/05/18 00:53:40;;;;;;;3.80;1.50;;;17.30;99.90;;;;;;5031123;28;20495;-51
2022/05/18 00:56:10;;;;;;;5.65;0.98;;;17.30;99.90;;;;;;5031558;28;20859;-53
2022/05/18 00:58:52;;;;;;;5.57;1.20;;;17.20;99.90;;;;;;5046141;28;20428;-53
2022/05/18 01:01:17;;;;;;;1.90;0.90;;;17.20;99.90;;;;;;5032410;28;20397;-54
2022/05/18 01:03:50;;;;;;;2.23;0.80;;;17.20;99.90;;;;;;5032670;28;20604;-53
2022/05/18 01:06:32;;;;;;;2.53;1.00;;;17.20;99.90;;;;;;5034184;28;20382;-57
2022/05/18 01:09:05;;;;;;;3.78;1.00;;;17.20;99.90;;;;;;5032505;28;20713;-53
2022/05/18 01:11:34;;;;;;;1.45;0.77;;;17.20;99.90;;;;;;5033348;28;20438;-52
2022/05/18 01:14:00;;;;;;;5.63;1.05;;;17.10;99.90;;;;;;5032324;28;20443;-53
2022/05/18 01:16:28;;;;;;;3.38;0.70;;;17.10;99.90;;;;;;5031381;28;20431;-52
2022/05/18 01:18:55;;;;;;;2.70;0.90;;;17.00;99.90;;;;;;5032178;28;20649;-53
2022/05/18 01:21:22;;;;;;;1.75;1.00;;;17.00;99.90;;;;;;5033321;28;20431;-54
2022/05/18 01:24:11;;;;;;;1.92;1.00;;;17.00;99.90;;;;;;5032586;28;20508;-56
2022/05/18 01:26:45;;;;;;;2.80;0.80;;;17.00;99.90;;;;;;5033843;28;20382;-56
2022/05/18 01:29:11;;;;;;;1.98;0.75;;;16.90;99.90;;;;;;5051564;28;20519;-54
2022/05/18 01:31:47;;;;;;;2.80;1.10;;;16.90;99.90;;;;;;5034577;28;20500;-50
2022/05/18 01:34:13;;;;;;;4.13;1.05;;;16.90;99.90;;;;;;5037361;28;20503;-52
2022/05/18 01:36:39;;;;;;;5.32;0.90;;;16.80;99.90;;;;;;5036344;28;20665;-54
2022/05/18 01:39:08;;;;;;;1.47;0.80;;;16.80;99.90;;;;;;5035064;28;20454;-50
2022/05/18 01:41:46;;;;;;;3.13;1.10;;;16.80;99.90;;;;;;5035163;28;20782;-54
2022/05/18 01:44:12;;;;;;;2.47;1.17;;;16.80;99.90;;;;;;5035950;28;20381;-51
2022/05/18 01:46:37;;;;;;;4.90;1.03;;;16.80;99.90;;;;;;5037730;28;20385;-55
2022/05/18 01:49:03;;;;;;;4.67;0.97;;;16.70;99.90;;;;;;5036691;28;20495;-54
2022/05/18 01:51:43;;;;;;;3.73;1.00;;;16.70;99.90;;;;;;5035209;28;20389;-52
2022/05/18 01:54:09;;;;;;;4.28;1.10;;;16.70;99.90;;;;;;5052460;28;20469;-54
2022/05/18 01:56:36;;;;;;;2.42;1.10;;;16.70;99.90;;;;;;5036087;28;20385;-53
2022/05/18 01:59:04;;;;;;;3.00;0.93;;;16.70;99.90;;;;;;5051783;28;22107;-52
2022/05/18 02:01:29;;;;;;;3.92;0.90;;;16.70;99.90;;;;;;5035316;28;20695;-56
2022/05/18 02:03:56;;;;;;;1.90;1.00;;;16.60;99.90;;;;;;5035890;28;20471;-54
2022/05/18 02:06:22;;;;;;;4.18;1.02;;;16.60;99.90;;;;;;5035881;28;20432;-52
2022/05/18 02:08:48;;;;;;;2.28;0.90;;;16.50;99.90;;;;;;5034360;28;20451;-53
2022/05/18 02:11:19;;;;;;;6.57;1.20;;;16.50;99.90;;;;;;5034118;28;20425;-50
2022/05/18 02:13:45;;;;;;;3.45;1.10;;;16.40;99.90;;;;;;5035417;28;20382;-56
2022/05/18 02:16:12;;;;;;;2.35;0.90;;;16.50;99.90;;;;;;5037848;28;20394;-54
2022/05/18 02:18:37;;;;;;;5.43;1.20;;;16.40;99.90;;;;;;5038136;28;20405;-56
2022/05/18 02:21:05;;;;;;;4.20;1.08;;;16.40;99.90;;;;;;5054451;28;20423;-56
2022/05/18 02:23:31;;;;;;;2.10;0.90;;;16.40;99.90;;;;;;5037301;28;20393;-55
2022/05/18 02:26:19;;;;;;;2.40;0.95;;;16.40;99.90;;;;;;5055699;28;20382;-53
2022/05/18 02:28:45;;;;;;;3.42;1.00;;;16.30;99.90;;;;;;5036945;28;20393;-52
2022/05/18 02:31:11;;;;;;;2.10;1.00;;;16.30;99.90;;;;;;5035564;28;20393;-51
2022/05/18 02:33:38;;;;;;;4.22;1.05;;;16.20;99.90;;;;;;5036235;28;20432;-55
2022/05/18 02:36:06;;;;;;;3.00;1.08;;;16.20;99.90;;;;;;5036261;28;20696;-55
2022/05/18 02:38:32;;;;;;;5.38;1.20;;;16.30;99.90;;;;;;5052190;28;20454;-50
2022/05/18 02:41:06;;;;;;;5.28;0.90;;;16.20;99.90;;;;;;5051485;28;20769;-53
2022/05/18 02:43:37;;;;;;;3.58;0.93;;;16.20;99.90;;;;;;5052061;28;20392;-52
2022/05/18 02:46:10;;;;;;;2.38;0.95;;;16.20;99.90;;;;;;5034704;28;20395;-55
2022/05/18 02:48:36;;;;;;;2.00;0.90;;;16.30;99.90;;;;;;5051166;28;20633;-55
2022/05/18 02:51:04;;;;;;;2.20;0.98;;;16.20;99.90;;;;;;5032723;28;20401;-52
2022/05/18 02:53:29;;;;;;;3.20;1.10;;;16.10;99.90;;;;;;5033736;28;20852;-57
2022/05/18 02:56:07;;;;;;;2.63;1.17;;;16.10;99.90;;;;;;5052974;28;20396;-53
2022/05/18 02:58:42;;;;;;;4.18;0.90;;;16.10;99.90;;;;;;5030485;28;20842;-56
2022/05/18 03:01:10;;;;;;;2.60;0.90;;;16.10;99.90;;;;;;5030772;28;20476;-55
2022/05/18 03:03:37;;;;;;;1.35;0.90;;;16.10;99.90;;;;;;5032110;28;20790;-53
2022/05/18 03:06:03;;;;;;;4.15;1.10;;;16.10;99.90;;;;;;5031730;28;20383;-52
2022/05/18 03:08:34;;;;;;;3.28;1.15;;;16.10;99.90;;;;;;5032956;28;20387;-53
2022/05/18 03:11:00;;;;;;;3.65;1.02;;;16.10;99.90;;;;;;5033367;28;20395;-54
2022/05/18 03:13:26;;;;;;;2.13;0.90;;;16.10;99.90;;;;;;5032891;28;20391;-54
2022/05/18 03:15:51;;;;;;;2.65;1.00;;;16.00;99.90;;;;;;5032549;28;20387;-53
2022/05/18 03:18:17;;;;;;;1.90;1.00;;;16.00;99.90;;;;;;5031298;28;20391;-53
2022/05/18 03:23:34;;;;;;;3.38;1.08;;;16.00;99.90;;;;;;5030414;28;20675;-54
2022/05/18 03:26:21;;;;;;;2.05;1.00;;;16.00;99.90;;;;;;5031187;28;20801;-56
2022/05/18 03:28:49;;;;;;;2.23;1.10;;;16.00;99.90;;;;;;5031291;28;20384;-53
2022/05/18 03:31:16;;;;;;;5.55;1.10;;;15.90;99.90;;;;;;5031228;28;20527;-51
2022/05/18 03:33:43;;;;;;;2.63;1.10;;;15.90;99.90;;;;;;5029705;28;20454;-53
2022/05/18 03:36:12;;;;;;;5.22;1.40;;;15.90;99.90;;;;;;5029695;28;20387;-55
2022/05/18 03:38:39;;;;;;;1.73;1.20;;;15.90;99.90;;;;;;5028401;28;20398;-52
2022/05/18 03:41:05;;;;;;;2.28;0.98;;;15.90;99.90;;;;;;5031678;28;20818;-54
2022/05/18 03:43:31;;;;;;;3.28;1.10;;;15.90;99.90;;;;;;5028992;28;20470;-49
2022/05/18 03:46:12;;;;;;;2.30;1.10;;;15.90;99.90;;;;;;5032910;28;20417;-53
2022/05/18 03:48:38;;;;;;;4.43;1.27;;;15.90;99.90;;;;;;5026960;28;20401;-51
2022/05/18 03:51:07;;;;;;;3.78;1.10;;;15.90;99.90;;;;;;5026793;28;20663;-56
2022/05/18 03:53:33;;;;;;;3.60;1.20;;;15.80;99.90;;;;;;5026814;28;20379;-53
2022/05/18 03:55:59;;;;;;;1.27;0.90;;;15.80;99.90;;;;;;5025756;28;20399;-52
2022/05/18 03:58:24;;;;;;;3.45;1.20;;;15.80;99.90;;;;;;5027397;28;20419;-53
2022/05/18 04:00:52;;;;;;;4.40;1.60;;;15.80;99.90;;;;;;5026605;28;20540;-52
2022/05/18 04:03:19;;;;;;;3.58;1.17;;;15.80;99.90;;;;;;5028433;28;20389;-55
2022/05/18 04:05:48;;;;;;;1.90;1.17;;;15.80;99.90;;;;;;5029860;28;20479;-54
2022/05/18 04:08:13;;;;;;;4.10;1.10;;;15.80;99.90;;;;;;5030449;28;20683;-55
2022/05/18 04:10:40;;;;;;;2.70;1.30;;;15.80;99.90;;;;;;5031188;28;20829;-52
2022/05/18 04:13:07;;;;;;;2.33;1.13;;;15.80;99.90;;;;;;5030057;28;20394;-51
2022/05/18 04:15:33;;;;;;;4.05;1.20;;;15.70;99.90;;;;;;5030693;28;20627;-50
2022/05/18 04:17:59;;;;;;;4.47;1.27;;;15.70;99.90;;;;;;5030176;28;20482;-55
2022/05/18 04:20:25;;;;;;;3.47;1.30;;;15.70;99.90;;;;;;5029399;28;20766;-49
2022/05/18 04:22:52;;;;;;;2.72;1.20;;;15.70;99.90;;;;;;5030681;28;20411;-52
2022/05/18 04:25:25;;;;;;;5.10;1.20;;;15.70;99.90;;;;;;5029809;28;20660;-52
2022/05/18 04:27:50;;;;;;;6.45;1.27;;;15.70;99.90;;;;;;5027289;28;20411;-56
2022/05/18 04:30:18;;;;;;;1.93;1.03;;;15.70;99.90;;;;;;5027628;28;20958;-51
2022/05/18 04:32:44;;;;;;;4.88;1.10;;;15.70;99.90;;;;;;5027378;28;20383;-52
2022/05/18 04:35:12;;;;;;;4.75;1.13;;;15.70;99.90;;;;;;5026451;28;20402;-55
2022/05/18 04:37:38;;;;;;;2.30;1.10;;;15.80;99.90;;;;;;5025100;28;20672;-53
2022/05/18 04:40:05;;;;;;;1.73;1.10;;;15.70;99.90;;;;;;5025435;28;20838;-53
2022/05/18 04:42:31;;;;;;;3.17;1.30;;;15.70;99.90;;;;;;5024793;28;20387;-54
2022/05/18 04:44:57;;;;;;;2.58;1.50;;;15.80;99.90;;;;;;5025109;28;20379;-55
2022/05/18 04:47:24;;;;;;;6.17;1.37;;;15.90;99.90;;;;;;5023497;28;20393;-51
2022/05/18 04:49:50;;;;;;;3.60;1.45;;;15.90;99.90;;;;;;5024220;28;20675;-51
2022/05/18 04:52:17;;;;;;;3.60;1.30;;;15.90;99.90;;;;;;5021071;28;20642;-55
2022/05/18 04:54:43;;;;;;;2.25;1.13;;;15.90;99.90;;;;;;5025467;28;20878;-52
2022/05/18 04:57:08;;;;;;;3.93;1.30;;;15.90;99.90;;;;;;5032265;28;20571;-51
2022/05/18 04:59:34;;;;;;;2.47;1.20;;;15.90;99.90;;;;;;5032066;28;20474;-53
2022/05/18 05:01:59;;;;;;;2.00;1.23;;;16.00;99.90;;;;;;5030116;28;20451;-51
2022/05/18 05:04:25;;;;;;;2.33;1.10;;;15.90;99.90;;;;;;5050613;28;20607;-55
2022/05/18 05:06:50;;;;;;;2.10;1.20;;;15.90;99.90;;;;;;5034706;28;20389;-53
2022/05/18 05:09:16;;;;;;;2.65;1.23;;;16.00;99.90;;;;;;5034986;28;20389;-54
2022/05/18 05:11:42;;;;;;;3.30;1.10;;;16.00;99.90;;;;;;5054010;28;20471;-53
2022/05/18 05:14:09;;;;;;;2.85;1.20;;;16.00;99.90;;;;;;5041848;28;20400;-52
2022/05/18 05:16:35;;;;;;;3.30;1.20;;;16.00;99.90;;;;;;5040737;28;20953;-55
2022/05/18 05:19:01;;;;;;;2.42;1.25;;;16.00;99.90;;;;;;5037788;28;20405;-56
2022/05/18 05:21:27;;;;;;;4.00;1.60;;;16.00;99.90;;;;;;5036545;28;20404;-56
2022/05/18 05:23:52;;;;;;;2.97;1.47;;;16.00;99.90;;;;;;5036280;28;20557;-54
2022/05/18 05:26:18;;;;;;;2.03;1.60;;;16.00;99.90;;;;;;5034810;28;20665;-51
2022/05/18 05:28:44;;;;;;;3.40;1.38;;;16.00;99.90;;;;;;5035729;28;20428;-53
2022/05/18 05:31:11;;;;;;;3.50;1.63;;;16.10;99.90;;;;;;5050098;28;20381;-56
2022/05/18 05:33:39;;;;;;;2.13;1.30;;;16.10;99.90;;;;;;5051541;28;20612;-54
2022/05/18 05:36:05;;;;;;;4.75;1.65;;;16.20;99.90;;;;;;5033253;28;20836;-50
2022/05/18 05:38:31;;;;;;;5.57;1.60;;;16.20;99.90;;;;;;5033683;28;20488;-54
2022/05/18 05:40:59;;;;;;;3.20;1.52;;;16.20;99.90;;;;;;5030636;28;20512;-52
2022/05/18 05:43:25;;;;;;;3.80;1.60;;;16.20;99.90;;;;;;5032381;28;20498;-54
2022/05/18 05:45:56;;;;;;;5.13;1.83;;;16.30;99.90;;;;;;5030642;28;20765;-53
2022/05/18 05:48:23;;;;;;;10.13;1.80;;;16.40;99.90;;;;;;5028500;28;20410;-54
2022/05/18 05:51:13;;;;;;;4.47;1.88;;;16.40;99.90;;;;;;5028763;28;20417;-53
2022/05/18 05:53:43;;;;;;;3.33;1.83;;;16.40;99.90;;;;;;5026954;28;20504;-52
2022/05/18 05:56:11;;;;;;;3.50;1.70;;;16.40;99.90;;;;;;5044139;28;20642;-52
2022/05/18 05:58:37;;;;;;;2.80;1.60;;;16.50;99.90;;;;;;5022731;28;20412;-51
2022/05/18 06:01:06;;;;;;;4.60;1.92;;;16.30;99.90;;;;;;5022780;28;20401;-52
2022/05/18 06:03:33;;;;;;;3.60;1.73;;;16.40;99.90;;;;;;5024574;28;20831;-52
2022/05/18 06:05:59;;;;;;;3.42;1.67;;;16.40;99.90;;;;;;5022785;28;20381;-53
2022/05/18 06:08:25;;;;;;;3.03;1.80;;;16.40;99.90;;;;;;5023808;28;20425;-51
2022/05/18 06:10:51;;;;;;;3.72;1.80;;;16.50;99.90;;;;;;5023578;28;20707;-50
2022/05/18 06:13:19;;;;;;;4.35;1.50;;;16.60;99.90;;;;;;5024479;28;20455;-53
2022/05/18 06:15:45;;;;;;;5.90;2.00;;;16.70;99.90;;;;;;5008902;28;20466;-53
2022/05/18 06:18:11;;;;;;;3.47;1.97;;;16.80;99.90;;;;;;5042114;28;20397;-49
2022/05/18 06:20:37;;;;;;;3.80;2.00;;;16.90;99.90;;;;;;5023656;28;20406;-51
2022/05/18 06:23:07;;;;;;;6.13;2.08;;;16.90;99.90;;;;;;5024651;28;20389;-52
2022/05/18 06:25:33;;;;;;;3.92;2.22;;;16.90;99.90;;;;;;5023650;28;20586;-54
2022/05/18 06:27:59;;;;;;;3.22;1.90;;;17.00;99.90;;;;;;5040747;28;20636;-56
2022/05/18 06:30:25;;;;;;;2.50;1.87;;;16.90;99.90;;;;;;5041326;28;20541;-53
2022/05/18 06:32:51;;;;;;;4.77;2.20;;;16.90;99.90;;;;;;5024675;28;20602;-55
2022/05/18 06:35:16;;;;;;;2.97;1.90;;;16.90;99.90;;;;;;5040250;28;20432;-56
2022/05/18 06:37:42;;;;;;;5.45;2.35;;;16.90;99.90;;;;;;5040970;28;20534;-52
2022/05/18 06:40:08;;;;;;;5.03;2.23;;;16.90;99.90;;;;;;5022462;28;20700;-54
2022/05/18 06:42:34;;;;;;;4.45;2.50;;;16.80;99.90;;;;;;5040759;28;20672;-53
2022/05/18 06:45:03;;;;;;;3.87;2.20;;;16.80;99.90;;;;;;5022664;28;20393;-51
2022/05/18 06:47:29;;;;;;;4.50;2.20;;;17.00;99.90;;;;;;5021936;28;20458;-53
2022/05/18 06:49:55;;;;;;;7.32;2.90;;;17.10;99.90;;;;;;5039354;28;20393;-54
2022/05/18 06:52:21;;;;;;;6.60;2.60;;;17.20;99.90;;;;;;5023059;28;20515;-54
2022/05/18 06:54:47;;;;;;;4.83;2.10;;;17.30;99.90;;;;;;5044295;28;20435;-52
2022/05/18 06:57:13;;;;;;;3.10;2.13;;;17.30;99.90;;;;;;5021147;28;20774;-50
2022/05/18 06:59:38;;;;;;;3.28;2.20;;;17.30;99.90;;;;;;5021499;28;20420;-51
2022/05/18 07:02:04;;;;;;;4.30;2.45;;;17.40;99.90;;;;;;5022853;28;20640;-51
2022/05/18 07:04:30;;;;;;;5.82;2.97;;;17.50;99.90;;;;;;5021332;28;20849;-49
2022/05/18 07:06:57;;;;;;;6.38;2.85;;;17.60;99.90;;;;;;5023776;28;20476;-51
2022/05/18 07:09:24;;;;;;;3.88;2.30;;;17.60;99.90;;;;;;5022765;28;20402;-52
2022/05/18 07:11:50;;;;;;;4.65;2.13;;;17.60;99.90;;;;;;5024527;28;20649;-54
2022/05/18 07:14:19;;;;;;;4.75;2.25;;;17.60;99.90;;;;;;5024751;28;20468;-56
2022/05/18 07:16:45;;;;;;;9.10;2.87;;;17.70;99.90;;;;;;5023061;28;20809;-55
2022/05/18 07:19:12;;;;;;;4.30;2.53;;;17.70;99.90;;;;;;5022839;28;20402;-53
2022/05/18 07:21:37;;;;;;;5.10;2.55;;;17.70;99.90;;;;;;5020434;28;20710;-52
2022/05/18 07:24:04;;;;;;;6.70;3.22;;;17.70;99.90;;;;;;5021258;28;20383;-51
2022/05/18 07:26:30;;;;;;;3.88;3.00;;;17.70;99.90;;;;;;5021918;28;20383;-54
2022/05/18 07:28:56;;;;;;;4.20;2.97;;;17.70;99.90;;;;;;5023664;28;20589;-55
2022/05/18 07:31:22;;;;;;;4.25;2.63;;;17.70;99.90;;;;;;5022559;28;20485;-55
2022/05/18 07:33:48;;;;;;;4.88;2.50;;;17.70;99.90;;;;;;5024768;28;20740;-55
2022/05/18 07:36:18;;;;;;;3.08;2.45;;;17.70;99.90;;;;;;5026657;28;20395;-51
2022/05/18 07:38:45;;;;;;;5.60;3.20;;;17.70;99.90;;;;;;5027282;28;20386;-53
2022/05/18 07:41:13;;;;;;;4.10;2.60;;;17.80;99.90;;;;;;5026343;28;20409;-51
2022/05/18 07:43:39;;;;;;;4.43;3.08;;;17.80;99.90;;;;;;5025118;28;20486;-51
2022/05/18 07:46:06;;;;;;;5.65;2.80;;;17.80;99.90;;;;;;5024520;28;20458;-51
2022/05/18 07:48:32;;;;;;;4.93;2.53;;;17.80;99.90;;;;;;5024747;28;20668;-51
2022/05/18 07:50:58;;;;;;;4.30;2.92;;;17.80;99.90;;;;;;5024676;28;20410;-53
2022/05/18 07:53:24;;;;;;;5.57;2.70;;;17.80;99.90;;;;;;5023112;28;20502;-54
2022/05/18 07:55:50;;;;;;;5.32;2.97;;;17.80;99.90;;;;;;5021583;28;20831;-52
2022/05/18 07:58:19;;;;;;;5.73;2.70;;;17.90;99.90;;;;;;5018988;28;20458;-51
2022/05/18 08:00:46;;;;;;;4.63;3.10;;;17.90;99.90;;;;;;5020842;28;20484;-52
2022/05/18 08:03:12;;;;;;;4.18;3.13;;;18.00;99.90;;;;;;5020889;28;20604;-51
2022/05/18 08:05:43;;;;;;;4.15;3.10;;;17.90;99.90;;;;;;5019142;28;20525;-52
2022/05/18 08:08:13;;;;;;;4.95;3.17;;;17.80;99.90;;;;;;5019146;28;20472;-51
2022/05/18 08:16:09;;;;;;;6.93;3.17;;;17.90;99.90;;;;;;5020850;28;20887;-52
2022/05/18 08:18:35;;;;;;;3.15;2.60;;;17.90;99.90;;;;;;5019676;28;20513;-56
2022/05/18 08:21:01;;;;;;;4.60;2.80;;;17.90;99.90;;;;;;5021571;28;20496;-54
2022/05/18 08:23:27;;;;;;;3.92;2.80;;;18.00;99.90;;;;;;5023076;28;20470;-53
2022/05/18 08:25:54;;;;;;;5.07;3.20;;;18.00;99.90;;;;;;5023826;28;20375;-49
2022/05/18 08:28:20;;;;;;;5.43;3.20;;;18.10;99.90;;;;;;5025559;28;20457;-52
2022/05/18 08:30:46;;;;;;;3.67;3.03;;;18.10;99.90;;;;;;5027753;28;20413;-52
2022/05/18 08:33:12;;;;;;;4.10;3.27;;;18.20;99.90;;;;;;5029890;28;20738;-54
2022/05/18 08:35:40;;;;;;;5.73;3.00;;;18.20;99.90;;;;;;5033966;28;20920;-55
2022/05/18 08:38:05;;;;;;;6.55;3.40;;;18.30;99.90;;;;;;5032961;28;20886;-55
2022/05/18 08:40:47;;;;;;;4.15;3.47;;;18.50;99.90;;;;;;5030618;28;20421;-53
2022/05/18 08:43:23;;;;;;;4.95;3.47;;;18.60;99.90;;;;;;5030461;28;20411;-54
2022/05/18 08:46:15;;;;;;;5.38;3.92;;;18.60;99.90;;;;;;5028169;28;20418;-52
2022/05/18 08:48:42;;;;;;;4.22;3.80;;;18.70;99.90;;;;;;5013004;28;20465;-55
2022/05/18 08:51:36;;;;;;;7.25;3.60;;;18.90;99.90;;;;;;5025742;28;20446;-55
2022/05/18 08:54:27;;;;;;;5.93;3.77;;;19.00;99.90;;;;;;4990283;28;20522;-50
2022/05/18 08:56:56;;;;;;;6.32;4.30;;;19.10;99.90;;;;;;5004418;28;20456;-52
2022/05/18 08:59:29;;;;;;;5.85;4.50;;;19.20;99.90;;;;;;5028985;28;20428;-54
2022/05/18 09:01:58;;;;;;;5.75;4.03;;;19.20;99.90;;;;;;5029812;28;20400;-55
2022/05/18 09:04:47;;;;;;;7.75;4.20;;;19.20;99.90;;;;;;5029414;28;20488;-53
2022/05/18 09:07:19;;;;;;;5.25;3.83;;;19.40;99.90;;;;;;5032802;28;20389;-52
2022/05/18 09:10:16;;;;;;;5.25;4.38;;;19.50;99.90;;;;;;5051170;28;20389;-56
2022/05/18 09:12:48;;;;;;;4.40;3.55;;;19.50;99.90;;;;;;5034074;28;20481;-51
2022/05/18 09:15:18;;;;;;;6.68;4.47;;;19.70;99.90;;;;;;5033954;28;20393;-54
2022/05/18 09:17:46;;;;;;;7.18;5.03;;;19.70;99.90;;;;;;5032185;28;20381;-53
2022/05/18 09:20:22;;;;;;;5.68;4.55;;;19.80;99.90;;;;;;5049572;28;21181;-55
2022/05/18 09:23:08;;;;;;;5.97;4.22;;;19.80;99.90;;;;;;5047975;28;20417;-60
2022/05/18 09:25:42;;;;;;;6.72;4.40;;;19.90;99.90;;;;;;5031488;28;20392;-63
2022/05/18 09:28:25;;;;;;;5.07;4.57;;;20.00;99.90;;;;;;5030305;28;20374;-58
2022/05/18 09:31:00;;;;;;;17.05;5.53;;;20.10;99.90;;;;;;5050427;28;20441;-59
2022/05/18 09:34:03;;;;;;;8.70;4.57;;;20.10;99.90;;;;;;5033222;28;20492;-58
2022/05/18 09:36:39;;;;;;;7.90;4.97;;;20.10;99.90;;;;;;5051333;28;20400;-59
2022/05/18 09:39:14;;;;;;;5.47;4.60;;;20.10;99.90;;;;;;5034365;28;20398;-57
2022/05/18 09:41:50;;;;;;;6.72;5.35;;;20.20;99.90;;;;;;5034465;28;20390;-59
2022/05/18 09:44:40;;;;;;;6.78;5.55;;;20.20;99.90;;;;;;5034282;28;20403;-59
2022/05/18 09:47:09;;;;;;;7.55;4.68;;;20.20;99.90;;;;;;5034186;28;20813;-59
2022/05/18 09:49:43;;;;;;;7.50;5.40;;;20.30;99.90;;;;;;5033202;28;20485;-58
2022/05/18 09:52:09;;;;;;;5.97;5.00;;;20.40;99.90;;;;;;5032239;28;20381;-59
2022/05/18 09:54:38;;;;;;;5.82;4.80;;;20.50;99.90;;;;;;5048949;28;20472;-59
2022/05/18 09:57:14;;;;;;;5.15;4.22;;;20.50;99.90;;;;;;5032512;28;20409;-59
2022/05/18 09:59:45;;;;;;;8.07;5.50;;;20.70;99.90;;;;;;5032585;28;20407;-56
2022/05/18 10:07:51;;;;;;;5.80;4.93;;;20.80;99.90;;;;;;5052171;28;21006;-59
2022/05/18 10:10:19;;;;;;;8.37;5.43;;;21.00;99.90;;;;;;5052102;28;20439;-59
2022/05/18 10:12:47;;;;;;;6.38;4.82;;;21.00;99.90;;;;;;5034821;28;20393;-55
2022/05/18 10:15:21;;;;;;;7.15;4.47;;;21.00;99.90;;;;;;5035773;28;20386;-59
2022/05/18 10:17:51;;;;;;;6.18;5.55;;;21.10;99.90;;;;;;5035741;28;20381;-59
2022/05/18 10:20:33;;;;;;;7.95;5.45;;;21.10;99.90;;;;;;5051878;28;20413;-58
2022/05/18 10:23:00;;;;;;;8.15;5.47;;;21.20;99.90;;;;;;5034385;28;20373;-59
2022/05/18 10:25:47;;;;;;;7.32;5.90;;;21.30;99.90;;;;;;5035473;28;20397;-59
2022/05/18 10:28:22;;;;;;;6.28;5.68;;;21.30;99.90;;;;;;5036235;28;20828;-59
2022/05/18 10:30:53;;;;;;;6.93;5.43;;;21.40;99.90;;;;;;5035379;28;20396;-59
2022/05/18 10:33:23;;;;;;;9.73;5.72;;;21.40;99.90;;;;;;5053324;28;20381;-58
2022/05/18 10:35:51;;;;;;;6.90;6.20;;;21.50;99.90;;;;;;5034454;28;20393;-59
2022/05/18 10:38:27;;;;;;;5.50;4.90;;;21.60;99.90;;;;;;5034698;28;20381;-56
2022/05/18 10:41:06;;;;;;;6.95;5.40;;;21.60;99.90;;;;;;5034277;28;20401;-59
2022/05/18 10:43:45;;;;;;;7.82;5.50;;;21.70;99.90;;;;;;5048332;28;20373;-59
2022/05/18 10:46:15;;;;;;;9.10;6.13;;;21.70;99.90;;;;;;5029899;28;20425;-58
2022/05/18 10:48:57;;;;;;;6.70;6.00;;;21.80;99.90;;;;;;5029692;28;20405;-59
2022/05/18 10:51:32;;;;;;;9.38;6.35;;;21.80;99.90;;;;;;5029264;28;20484;-58
2022/05/18 10:54:18;;;;;;;8.20;5.93;;;21.90;99.90;;;;;;5030906;28;20385;-59
2022/05/18 10:56:45;;;;;;;8.52;5.65;;;21.90;99.90;;;;;;5048613;28;20411;-59
2022/05/18 10:59:20;;;;;;;5.90;5.28;;;22.00;99.90;;;;;;5030744;28;20444;-59
2022/05/18 11:01:58;;;;;;;6.53;5.00;;;22.10;99.90;;;;;;5029623;28;20389;-59
2022/05/18 11:04:29;;;;;;;6.38;5.57;;;22.10;99.90;;;;;;5029748;28;20390;-60
2022/05/18 11:06:55;;;;;;;8.27;6.32;;;22.20;99.90;;;;;;5046162;28;20381;-59
2022/05/18 11:09:27;;;;;;;9.75;5.97;;;22.30;99.90;;;;;;5027098;28;20442;-59
2022/05/18 11:12:12;;;;;;;6.15;5.25;;;22.30;99.90;;;;;;5027249;28;20809;-57
2022/05/18 11:14:50;;;;;;;5.97;5.38;;;22.30;99.90;;;;;;5027419;28;20377;-60
2022/05/18 11:17:47;;;;;;;11.65;6.82;;;22.40;99.90;;;;;;5028405;28;20860;-59
2022/05/18 11:20:31;;;;;;;7.70;5.75;;;22.40;99.90;;;;;;5028475;28;20420;-60
2022/05/18 11:23:14;;;;;;;7.25;6.07;;;22.50;99.90;;;;;;5047184;28;20388;-59
2022/05/18 11:26:03;;;;;;;6.45;5.68;;;22.70;99.90;;;;;;5045680;28;20373;-57
2022/05/18 11:28:54;;;;;;;6.67;5.53;;;22.80;99.90;;;;;;5047337;28;20495;-59
2022/05/18 11:31:48;;;;;;;7.25;5.70;;;23.00;99.90;;;;;;5030727;28;20438;-59
2022/05/18 11:34:38;;;;;;;8.53;6.00;;;23.30;99.90;;;;;;5030198;28;20450;-60
2022/05/18 11:37:13;;;;;;;7.90;5.75;;;23.40;99.90;;;;;;5030941;28;20419;-59
2022/05/18 11:40:02;;;;;;;6.60;5.95;;;23.60;99.90;;;;;;5048979;28;21059;-59
2022/05/18 11:42:55;;;;;;;6.83;5.00;;;23.80;99.90;;;;;;5046730;28;20374;-59
2022/05/18 11:45:24;;;;;;;8.07;6.10;;;24.00;99.90;;;;;;5047573;28;20480;-60
2022/05/18 11:47:56;;;;;;;6.38;5.78;;;24.20;99.90;;;;;;5029159;28;20389;-58
2022/05/18 11:50:49;;;;;;;5.93;5.25;;;24.20;99.90;;;;;;5027888;28;20409;-60
2022/05/18 11:53:33;;;;;;;6.20;5.60;;;24.50;99.90;;;;;;5048395;28;20378;-58
2022/05/18 11:56:11;;;;;;;6.55;4.78;;;24.60;99.90;;;;;;5045878;28;20380;-60
2022/05/18 11:59:52;;;;;;;6.60;5.50;;;24.60;99.90;;;;;;5026996;28;20504;-60
2022/05/18 12:02:10;;;;;;;5.28;4.78;;;24.70;99.90;;;;;;5032600;28;20408;-59
2022/05/18 12:05:00;;;;;;;6.75;5.85;;;24.80;99.90;;;;;;5027645;28;20700;-59
2022/05/18 12:07:55;;;;;;;6.82;4.93;;;24.80;99.90;;;;;;5027013;28;20393;-59
2022/05/18 12:10:33;;;;;;;5.97;5.03;;;24.90;99.90;;;;;;5026641;28;20400;-59
2022/05/18 12:13:15;;;;;;;5.10;4.70;;;25.00;99.90;;;;;;5046562;28;20373;-59
2022/05/18 12:16:20;;;;;;;5.32;4.75;;;25.00;99.90;;;;;;5047800;28;20383;-59
2022/05/18 12:19:01;;;;;;;7.30;5.18;;;25.10;99.90;;;;;;5046902;28;20401;-59
2022/05/18 12:21:38;;;;;;;5.80;5.20;;;25.20;99.90;;;;;;5027891;28;20448;-59
2022/05/18 12:24:05;;;;;;;7.32;5.28;;;25.30;99.90;;;;;;5045900;28;20388;-59
2022/05/18 12:26:34;;;;;;;5.30;4.80;;;25.80;99.90;;;;;;5029462;28;20378;-59
2022/05/18 12:29:04;;;;;;;4.43;4.03;;;26.10;99.90;;;;;;5028118;28;20385;-59
2022/05/18 12:31:30;;;;;;;4.85;4.45;;;26.40;99.90;;;;;;5026553;28;20643;-59
2022/05/18 12:34:05;;;;;;;5.05;4.18;;;26.70;99.90;;;;;;5029187;28;20591;-58
2022/05/18 12:36:44;;;;;;;4.30;3.88;;;27.00;99.90;;;;;;5049601;28;20416;-59
2022/05/18 12:39:12;;;;;;;5.20;4.20;;;27.10;99.90;;;;;;5050159;28;20385;-59
2022/05/18 12:41:44;;;;;;;9.93;4.80;;;27.10;99.90;;;;;;5028277;28;20414;-59
2022/05/18 12:44:30;;;;;;;4.50;4.10;;;27.10;99.90;;;;;;5040159;28;20373;-59
2022/05/18 12:47:02;;;;;;;6.55;4.07;;;27.10;99.90;;;;;;5023032;28;20508;-59
2022/05/18 12:49:34;;;;;;;4.53;3.70;;;27.40;99.90;;;;;;5040578;28;20875;-59
2022/05/18 12:52:05;;;;;;;5.53;3.72;;;27.30;99.90;;;;;;5021657;28;20389;-59
2022/05/18 12:54:40;;;;;;;9.37;4.77;;;27.50;99.90;;;;;;5020814;28;20789;-59
2022/05/18 12:57:07;;;;;;;5.70;3.95;;;27.50;99.90;;;;;;5021564;28;20409;-59
2022/05/18 12:59:46;;;;;;;6.60;4.20;;;27.60;99.90;;;;;;5038435;28;20820;-59
2022/05/18 13:02:35;;;;;;;6.55;3.83;;;27.50;99.90;;;;;;5018419;28;20377;-60
2022/05/18 13:05:08;;;;;;;5.07;3.90;;;27.50;99.90;;;;;;5017596;28;20817;-59
2022/05/18 13:07:36;;;;;;;5.82;3.47;;;27.60;99.90;;;;;;5035117;28;20720;-59
2022/05/18 13:10:27;;;;;;;6.65;3.78;;;27.70;99.90;;;;;;5034629;28;20381;-58
2022/05/18 13:13:23;;;;;;;4.32;3.45;;;27.90;99.90;;;;;;5018194;28;20773;-59
2022/05/18 13:15:56;;;;;;;6.03;3.97;;;28.10;99.90;;;;;;5011829;28;20492;-59
2022/05/18 13:18:36;;;;;;;3.83;3.50;;;27.80;99.90;;;;;;5023972;28;20397;-59
2022/05/18 13:21:08;;;;;;;3.97;3.58;;;27.60;99.90;;;;;;5026009;28;20408;-59